目前分類:代工模型作品 (53)

瀏覽方式: 標題列表 簡短摘要
發表時間 文章標題 人氣 留言
2018-09-11 KITTY HAWK 1/48 JAS-39 (229) (1)
2018-09-10 G.W.H 長城 1/48 MIG-29 (130) (0)
2018-09-03 HASAGAWA 1/48 A-4M (177) (0)
2018-09-01 KINETIC 1/48 F-16A BLOCK 20 401聯隊 6665 (348) (7)
2018-08-26 HASAGAWA 1/48 F/A-18AC (180) (0)
2017-12-31 1/35 MAZDA K360 三輪車 (105) (2)
2017-12-30 熊本城 (40) (0)
2017-10-17 TAMIYA 1/12 YAMAHA-M1 (193) (1)
2017-10-16 HASAGAWA 1/48 EA-18G (149) (0)
2017-10-16 HASAGAWA 1/48 FA-18D (103) (0)
2017-06-18 TAMIYA F-16CJ (269) (1)
2017-06-03 HASAGAWA 1/48 FA-18C (143) (0)
2017-03-13 TAMIYA 1/48 F-16CJ BLOCK 50 (928) (0)
2017-01-08 1/72 R.O.C.AF F-CK-1A (430) (1)
2016-10-22 RODEN 1/144 R.O.C.Air Force C-119G 3189 (315) (1)
2016-10-01 KITTY HAWK 1/48 SEPECAT JAGUAR T.2/T.4 美洲虎雙座教練機 (348) (1)
2016-07-04 1/48 AIRCRAFT WEAPONS:E U.S.AIR-TO-AIR MISSILES & TARGET PODS (119) (1)
2016-05-22 KINETIC 1/48 ROCAF Mirage2000-5EI 機號2016 (403) (3)
2016-02-01 Hasegawa 1/48 愛知九九艦上爆擊機一一型 (134) (2)
2015-11-23 HASEGAWA 1/48中島B6N2艦上攻擊機 天山一二型 (312) (0)
2015-08-11 HASEGAWA 1/48 F-4F PHANTOM II (318) (0)
2015-08-08 KINETIC 1/48 ROCAF Mirage2000-5EI 機號2048 (507) (2)
2014-07-11 AFV 1/48中華民國海軍500MD/ASW反潛直昇機(機號6901,6912) (392) (1)
2014-04-24 1/72 R.O.C.A. MIRAGE 2000-5EI (758) (3)
2014-04-11 hasegawa 休斯300蛋機 (214) (0)
2012-03-31 classic airframes 1/48 F-5A 自由鬥士 (310) (3)
2011-10-26 Kinetic 1/48 中華民國空軍 Mirage2000-5DI (1646) (16)
2011-10-10 1/48 TA-4J SKY HAWK 雙座教練機 (165) (4)
2011-01-03 1/48 KINETIC R.O.C.AIRFORCE 鷹眼2000 (306) (7)
2010-11-06 HASAGAWA 1/48 F-104G-4364&4347 (699) (5)
2010-08-26 小號手 1/72 Xi an FBC-1 Flying Leopard 西安飛豹 (177) (3)
2010-08-14 HASAGAWA 1/48 F-104G-4348 (535) (4)
2010-08-04 HASAGAWA 1/48 A-4E (253) (1)
2010-07-15 小號手1/72瀋陽F-8II FINBACK-B;長鬚鯨-B (148) (2)
2009-10-23 TAMIYA 1/72 MIG-29 (584) (5)
2009-10-08 KINETIC 1/48 ISRAEL(以色列空軍) F-16I (868) (4)
2009-07-30 1/48 空軍官校AT-3高級教練機 0831 (1096) (6)
2009-07-17 HASAGAWA 1/72 F-86F 軍刀機 (204) (2)
2008-09-03 1/72 SU-34 SUKHOI (130) (3)
2008-04-22 Academy 1/48 AH-64D Longbow 攻擊直昇機 (932) (3)
2008-04-22 1/48空軍官校初級教練機Beech T-34C(機號3421) (440) (7)
2008-04-01 Academy 1/48 CH-53E 超級種馬 第464直昇機隊 (884) (11)
2008-02-23 Hasegawa 1/72 F-15J 日本飛行教導隊 (218) (3)
2008-02-21 TAMIYA 1/72 F/A-18E SUPER HORNET (980) (3)
2008-01-12 FUJIMI 1/72 F-14A ALI CAT 伊朗空軍 (585) (3)
2008-01-03 Hasgawa 1/48 F-16A PLUS 第八航空團司令官機 (192) (6)
2007-11-04 1/48中華民國海軍500D直昇機(機號6915) (170) (1)
2007-11-04 1/48中華民國海軍500MD/ASW反潛直昇機(機號6907) (181) (1)
2007-10-19 TAMIYA 1/72達梭RAFALEC (99) (1)
2007-10-19 TAMIYA 1/72 EF-2000歐洲戰士 (188) (0)
1 2